createdAt,value
2018-05-12T00:00:48.910Z,100263
2018-05-12T00:05:55.793Z,100264
2018-05-12T00:11:00.072Z,100264
2018-05-12T00:16:01.664Z,100260
2018-05-12T00:21:03.560Z,100259
2018-05-12T00:26:05.472Z,100259
2018-05-12T00:31:07.716Z,100269
2018-05-12T00:36:09.276Z,100264
2018-05-12T00:41:11.007Z,100256
2018-05-12T00:46:12.680Z,100252
2018-05-12T00:51:14.227Z,100255
2018-05-12T00:56:16.575Z,100259
2018-05-12T01:01:20.351Z,100256
2018-05-12T01:06:26.738Z,100255
2018-05-12T01:11:33.647Z,100249
2018-05-12T01:16:37.515Z,100263
2018-05-12T01:21:41.123Z,100252
2018-05-12T01:26:45.720Z,100250
2018-05-12T01:31:52.934Z,100253
2018-05-12T01:37:00.608Z,100249
2018-05-12T01:42:09.827Z,100247
2018-05-12T01:47:14.968Z,100247
2018-05-12T01:52:16.889Z,100242
2018-05-12T01:57:18.451Z,100246
2018-05-12T02:02:21.031Z,100244
2018-05-12T02:07:23.530Z,100240
2018-05-12T02:12:26.229Z,100244
2018-05-12T02:17:28.562Z,100248
2018-05-12T02:22:30.558Z,100241
2018-05-12T02:27:35.130Z,100251
2018-05-12T02:32:39.336Z,100246
2018-05-12T02:37:45.036Z,100241
2018-05-12T02:42:47.159Z,100248
2018-05-12T02:47:52.045Z,100256
2018-05-12T02:52:55.485Z,100244
2018-05-12T02:57:59.735Z,100238
2018-05-12T03:03:04.039Z,100227
2018-05-12T03:08:11.771Z,100235
2018-05-12T03:13:15.613Z,100226
2018-05-12T03:18:22.521Z,100228
2018-05-12T03:23:30.580Z,100227
2018-05-12T03:28:35.183Z,100226
2018-05-12T03:33:40.410Z,100226
2018-05-12T03:38:44.452Z,100227
2018-05-12T03:43:51.073Z,100225
2018-05-12T03:48:55.044Z,100228
2018-05-12T03:54:00.755Z,100233
2018-05-12T03:59:07.542Z,100237
2018-05-12T04:04:29.578Z,100235
2018-05-12T04:14:59.795Z,100241
2018-05-12T04:20:01.313Z,100245
2018-05-12T04:25:02.850Z,100251
2018-05-12T04:30:04.374Z,100243
2018-05-12T04:35:06.891Z,100245
2018-05-12T04:40:08.671Z,100250
2018-05-12T04:45:10.344Z,100246
2018-05-12T04:50:12.112Z,100263
2018-05-12T04:55:13.867Z,100260
2018-05-12T05:00:16.275Z,100253
2018-05-12T05:10:37.272Z,100258
2018-05-12T05:15:40.717Z,100256
2018-05-12T05:20:44.525Z,100256
2018-05-12T05:25:46.685Z,100264
2018-05-12T05:30:48.509Z,100260
2018-05-12T05:35:51.143Z,100262
2018-05-12T05:40:53.080Z,100263
2018-05-12T05:45:56.087Z,100281
2018-05-12T05:50:57.924Z,100279
2018-05-12T05:55:59.759Z,100263
2018-05-12T06:01:01.329Z,100264
2018-05-12T06:06:02.990Z,100271
2018-05-12T06:11:05.152Z,100268
2018-05-12T06:16:08.018Z,100276
2018-05-12T06:21:10.023Z,100278
2018-05-12T06:26:12.670Z,100265
2018-05-12T06:31:14.503Z,100261
2018-05-12T06:36:16.396Z,100264
2018-05-12T06:41:18.371Z,100258
2018-05-12T06:46:20.349Z,100256
2018-05-12T06:51:22.177Z,100256
2018-05-12T06:56:24.095Z,100259
2018-05-12T07:01:25.927Z,100262
2018-05-12T07:06:28.491Z,100258
2018-05-12T07:11:30.376Z,100268
2018-05-12T07:16:32.201Z,100258
2018-05-12T07:21:33.954Z,100248
2018-05-12T07:26:36.583Z,100253
2018-05-12T07:31:38.214Z,100248
2018-05-12T07:36:39.912Z,100246
2018-05-12T07:41:41.772Z,100251
2018-05-12T07:46:57.593Z,100250
2018-05-12T07:52:00.280Z,100236
2018-05-12T07:57:02.347Z,100236
2018-05-12T08:02:04.683Z,100230
2018-05-12T08:07:06.256Z,100224
2018-05-12T08:12:08.285Z,100217
2018-05-12T08:17:11.050Z,100213
2018-05-12T08:22:12.772Z,100218
2018-05-12T08:27:14.399Z,100212
2018-05-12T08:32:16.584Z,100217
2018-05-12T08:37:18.620Z,100208
2018-05-12T08:42:20.777Z,100201
2018-05-12T08:47:23.301Z,100199
2018-05-12T08:52:25.057Z,100193
2018-05-12T08:57:26.839Z,100182
2018-05-12T09:02:29.091Z,100176
2018-05-12T09:07:31.471Z,100168
2018-05-12T09:12:34.180Z,100163
2018-05-12T09:17:36.847Z,100171
2018-05-12T09:22:38.824Z,100158
2018-05-12T09:27:40.516Z,100165
2018-05-12T09:32:43.134Z,100164
2018-05-12T09:37:44.778Z,100163
2018-05-12T09:42:47.397Z,100163
2018-05-12T09:47:49.303Z,100162
2018-05-12T09:52:51.034Z,100156
2018-05-12T09:57:53.814Z,100151
2018-05-12T10:02:56.408Z,100139
2018-05-12T10:07:59.663Z,100146
2018-05-12T10:13:01.431Z,100131
2018-05-12T10:18:07.369Z,100129
2018-05-12T10:23:10.660Z,100115
2018-05-12T10:28:13.786Z,100120
2018-05-12T10:33:16.814Z,100122
2018-05-12T10:38:18.673Z,100110
2018-05-12T10:43:20.931Z,100107
2018-05-12T10:48:23.006Z,100100
2018-05-12T10:53:39.299Z,100090
2018-05-12T10:58:40.873Z,100067
2018-05-12T11:03:42.584Z,100075
2018-05-12T11:08:44.997Z,100062
2018-05-12T11:13:46.614Z,100044
2018-05-12T11:18:48.115Z,100043
2018-05-12T11:23:50.482Z,100042
2018-05-12T11:28:52.181Z,100030
2018-05-12T11:33:53.872Z,100030
2018-05-12T11:38:55.424Z,100026
2018-05-12T11:43:56.972Z,100017
2018-05-12T11:48:59.259Z,100005
2018-05-12T11:54:01.952Z,99992
2018-05-12T11:59:04.092Z,100001
2018-05-12T12:04:06.012Z,99999
2018-05-12T12:09:08.281Z,99983
2018-05-12T12:14:10.099Z,99980
2018-05-12T12:19:11.801Z,99978
2018-05-12T12:24:13.520Z,99970
2018-05-12T12:29:16.039Z,99963
2018-05-12T12:34:17.909Z,99958
2018-05-12T12:39:19.672Z,99956
2018-05-12T12:44:21.465Z,99958
2018-05-12T12:49:23.055Z,99959
2018-05-12T12:54:25.387Z,99953
2018-05-12T12:59:27.677Z,99956
2018-05-12T13:04:30.001Z,99946
2018-05-12T13:09:31.520Z,99933
2018-05-12T13:14:33.908Z,99936
2018-05-12T13:19:35.415Z,99937
2018-05-12T13:24:37.177Z,99927
2018-05-12T13:29:38.749Z,99923
2018-05-12T13:34:40.514Z,99906
2018-05-12T13:39:42.123Z,99906
2018-05-12T13:44:43.691Z,99902
2018-05-12T13:49:45.403Z,99901
2018-05-12T13:54:47.743Z,99889
2018-05-12T13:59:49.272Z,99879
2018-05-12T14:04:51.689Z,99878
2018-05-12T14:09:53.242Z,99870
2018-05-12T14:14:55.016Z,99869
2018-05-12T14:19:56.786Z,99857
2018-05-12T14:24:58.548Z,99855
2018-05-12T14:30:00.832Z,99846
2018-05-12T14:35:03.428Z,99850
2018-05-12T14:40:05.921Z,99848
2018-05-12T14:45:07.681Z,99837
2018-05-12T14:50:10.107Z,99835
2018-05-12T14:55:11.777Z,99840
2018-05-12T15:00:13.723Z,99833
2018-05-12T15:05:16.146Z,99826
2018-05-12T15:10:17.735Z,99825
2018-05-12T15:15:19.464Z,99809
2018-05-12T15:20:21.235Z,99810
2018-05-12T15:25:23.729Z,99795
2018-05-12T15:30:25.507Z,99796
2018-05-12T15:35:27.251Z,99786
2018-05-12T15:40:28.903Z,99776
2018-05-12T15:45:30.717Z,99776
2018-05-12T15:50:33.044Z,99773
2018-05-12T15:55:34.805Z,99776
2018-05-12T16:00:36.434Z,99763
2018-05-12T16:05:38.937Z,99754
2018-05-12T16:10:40.723Z,99751
2018-05-12T16:15:42.269Z,99741
2018-05-12T16:20:44.699Z,99733
2018-05-12T16:25:46.458Z,99738
2018-05-12T16:30:48.451Z,99729
2018-05-12T16:35:50.000Z,99726
2018-05-12T16:40:51.573Z,99725
2018-05-12T16:46:00.416Z,99719
2018-05-12T16:51:02.141Z,99721
2018-05-12T16:56:03.660Z,99713
2018-05-12T17:01:05.411Z,99720
2018-05-12T17:06:06.946Z,99712
2018-05-12T17:11:08.653Z,99717
2018-05-12T17:16:10.435Z,99708
2018-05-12T17:21:12.043Z,99709
2018-05-12T17:26:13.634Z,99704
2018-05-12T17:31:15.177Z,99710
2018-05-12T17:36:16.900Z,99706
2018-05-12T17:41:18.694Z,99710
2018-05-12T17:46:20.423Z,99707
2018-05-12T17:51:21.986Z,99701
2018-05-12T17:56:23.805Z,99706
2018-05-12T18:01:25.373Z,99694
2018-05-12T18:06:26.939Z,99701
2018-05-12T18:11:28.606Z,99693
2018-05-12T18:16:30.285Z,99693
2018-05-12T18:21:32.143Z,99674
2018-05-12T18:26:34.652Z,99685
2018-05-12T18:31:36.412Z,99687
2018-05-12T18:36:37.961Z,99687
2018-05-12T18:41:40.254Z,99690
2018-05-12T18:46:42.607Z,99689
2018-05-12T18:51:44.177Z,99681
2018-05-12T18:56:45.843Z,99683
2018-05-12T19:01:47.563Z,99675
2018-05-12T19:06:50.066Z,99685
2018-05-12T19:11:52.804Z,99686
2018-05-12T19:16:54.504Z,99689
2018-05-12T19:21:56.130Z,99687
2018-05-12T19:26:57.715Z,99679
2018-05-12T19:31:59.323Z,99680
2018-05-12T19:37:00.940Z,99694
2018-05-12T19:42:02.526Z,99694
2018-05-12T19:47:04.094Z,99688
2018-05-12T19:52:05.905Z,99699
2018-05-12T19:57:08.513Z,99699
2018-05-12T20:02:10.094Z,99696
2018-05-12T20:07:11.872Z,99691
2018-05-12T20:12:13.623Z,99682
2018-05-12T20:17:15.289Z,99680
2018-05-12T20:22:16.984Z,99684
2018-05-12T20:27:18.727Z,99685
2018-05-12T20:32:21.106Z,99687
2018-05-12T20:37:23.706Z,99690
2018-05-12T20:42:25.348Z,99678
2018-05-12T20:47:27.069Z,99682
2018-05-12T20:52:28.838Z,99672
2018-05-12T20:57:30.463Z,99670
2018-05-12T21:02:32.003Z,99671
2018-05-12T21:07:33.758Z,99656
2018-05-12T21:12:35.728Z,99667
2018-05-12T21:17:37.493Z,99672
2018-05-12T21:22:39.170Z,99660
2018-05-12T21:27:40.763Z,99656
2018-05-12T21:32:42.514Z,99652
2018-05-12T21:37:44.166Z,99647
2018-05-12T21:42:46.679Z,99654
2018-05-12T21:47:48.257Z,99658
2018-05-12T21:52:49.792Z,99650
2018-05-12T21:57:52.260Z,99652
2018-05-12T22:02:54.065Z,99648
2018-05-12T22:07:55.687Z,99647
2018-05-12T22:12:57.349Z,99635
2018-05-12T22:17:59.271Z,99641
2018-05-12T22:23:00.859Z,99638
2018-05-12T22:28:02.562Z,99630
2018-05-12T22:33:04.107Z,99631
2018-05-12T22:38:05.756Z,99616
2018-05-12T22:43:08.458Z,99616
2018-05-12T22:48:10.737Z,99620
2018-05-12T22:53:12.967Z,99612
2018-05-12T22:58:14.448Z,99619
2018-05-12T23:03:16.155Z,99617
2018-05-12T23:08:18.458Z,99613
2018-05-12T23:13:19.998Z,99614
2018-05-12T23:18:22.409Z,99617
2018-05-12T23:23:24.063Z,99607
2018-05-12T23:28:26.396Z,99617
2018-05-12T23:33:28.143Z,99612
2018-05-12T23:38:29.653Z,99615
2018-05-12T23:43:31.485Z,99615
2018-05-12T23:48:33.027Z,99622
2018-05-12T23:53:35.316Z,99663
2018-05-12T23:58:37.801Z,99670
